Time;durP1;ratioP1;P1;durP2;ratioP2;P2;SDS_P1;SDS_P2;PMS_P1;PMS_P2;Temp;Humidity;BMP_temperature;BMP_pressure;BME280_temperature;BME280_humidity;BME280_pressure;Samples;Min_cycle;Max_cycle;Signal;HPM_P1;HPM_P2
2022/07/13 00:01:10;;;;;;;4.47;2.35;;;20.00;99.90;;;;;;5065037;28;20044;-79
2022/07/13 00:03:36;;;;;;;3.22;2.90;;;20.00;99.90;;;;;;5066504;28;20055;-80
2022/07/13 00:06:02;;;;;;;5.97;3.92;;;20.10;99.90;;;;;;5079446;28;20043;-79
2022/07/13 00:08:27;;;;;;;6.25;2.70;;;20.00;99.90;;;;;;5083097;28;20467;-80
2022/07/13 00:10:53;;;;;;;5.88;3.40;;;20.00;99.90;;;;;;5062067;28;20394;-83
2022/07/13 00:13:19;;;;;;;4.97;4.20;;;20.00;99.90;;;;;;5067405;28;20166;-80
2022/07/13 00:15:45;;;;;;;5.60;4.13;;;19.90;99.90;;;;;;5062410;28;20031;-79
2022/07/13 00:18:10;;;;;;;5.05;4.32;;;20.00;99.90;;;;;;5080271;28;20837;-80
2022/07/13 00:20:36;;;;;;;5.72;4.80;;;20.00;99.90;;;;;;5081183;28;20060;-81
2022/07/13 00:23:01;;;;;;;5.57;5.03;;;20.00;99.90;;;;;;5061755;28;20363;-79
2022/07/13 00:25:27;;;;;;;5.15;4.68;;;20.10;99.90;;;;;;5062679;28;20036;-79
2022/07/13 00:27:52;;;;;;;6.13;4.60;;;20.10;99.90;;;;;;5064451;28;20032;-84
2022/07/13 00:30:18;;;;;;;5.20;4.70;;;20.10;99.90;;;;;;5062508;28;20100;-82
2022/07/13 00:32:43;;;;;;;5.43;5.03;;;20.10;99.90;;;;;;5080382;28;20063;-80
2022/07/13 00:35:09;;;;;;;5.25;4.85;;;20.10;99.90;;;;;;5083431;28;20051;-79
2022/07/13 00:37:35;;;;;;;5.28;4.78;;;20.10;99.90;;;;;;5064364;28;20048;-79
2022/07/13 00:40:00;;;;;;;5.90;5.13;;;20.20;99.90;;;;;;5080281;28;20032;-81
2022/07/13 00:42:26;;;;;;;6.00;5.05;;;20.20;99.90;;;;;;5069235;28;20040;-80
2022/07/13 00:44:51;;;;;;;5.50;5.07;;;20.20;99.90;;;;;;5062509;28;20036;-80
2022/07/13 00:47:17;;;;;;;5.72;4.82;;;20.40;99.90;;;;;;5080578;28;20044;-79
2022/07/13 00:49:43;;;;;;;9.30;5.50;;;20.20;99.90;;;;;;5077075;28;21309;-80
2022/07/13 00:52:10;;;;;;;5.82;4.78;;;20.20;99.90;;;;;;5080058;28;20040;-80
2022/07/13 00:54:37;;;;;;;6.40;5.22;;;20.10;99.90;;;;;;5084287;28;20167;-82
2022/07/13 00:57:07;;;;;;;8.32;5.47;;;20.20;99.90;;;;;;5050060;28;20085;-79
2022/07/13 00:59:36;;;;;;;6.07;4.65;;;20.20;99.90;;;;;;5080361;28;20036;-84
2022/07/13 01:02:02;;;;;;;5.80;5.30;;;20.20;99.90;;;;;;5079125;28;20032;-80
2022/07/13 01:04:28;;;;;;;6.97;4.70;;;20.10;99.90;;;;;;5080949;28;20040;-80
2022/07/13 01:06:55;;;;;;;6.55;5.32;;;20.20;99.90;;;;;;5080852;28;20105;-82
2022/07/13 01:09:23;;;;;;;5.93;5.32;;;20.10;99.90;;;;;;5062935;28;20393;-83
2022/07/13 01:11:50;;;;;;;6.35;5.68;;;20.10;99.90;;;;;;5079335;28;20036;-79
2022/07/13 01:14:16;;;;;;;7.72;5.70;;;20.10;99.90;;;;;;5080196;28;20051;-81
2022/07/13 01:16:42;;;;;;;6.18;5.50;;;20.10;99.90;;;;;;5080222;28;20044;-82
2022/07/13 01:19:12;;;;;;;6.55;5.95;;;20.10;99.90;;;;;;5062880;28;20102;-80
2022/07/13 01:21:41;;;;;;;6.22;5.68;;;20.10;99.90;;;;;;5062419;28;20044;-80
2022/07/13 01:24:07;;;;;;;6.13;5.72;;;20.10;99.90;;;;;;5080474;28;20097;-80
2022/07/13 01:26:33;;;;;;;8.82;6.47;;;20.10;99.90;;;;;;5063309;28;20055;-82
2022/07/13 01:28:58;;;;;;;8.93;6.40;;;20.10;99.90;;;;;;5078953;28;20035;-82
2022/07/13 01:31:32;;;;;;;7.25;6.47;;;20.10;99.90;;;;;;5081912;28;20063;-81
2022/07/13 01:34:00;;;;;;;7.00;6.30;;;20.00;99.90;;;;;;5076039;28;20595;-81
2022/07/13 01:36:25;;;;;;;6.88;6.28;;;20.10;99.90;;;;;;5062890;28;20036;-81
2022/07/13 01:38:51;;;;;;;5.63;5.22;;;20.10;99.90;;;;;;5076957;28;20046;-82
2022/07/13 01:41:19;;;;;;;8.85;6.00;;;20.10;99.90;;;;;;5064759;28;20043;-80
2022/07/13 01:43:45;;;;;;;6.45;6.00;;;20.10;99.90;;;;;;5062737;28;20058;-81
2022/07/13 01:46:11;;;;;;;6.63;6.03;;;20.00;99.90;;;;;;5078516;28;20054;-79
2022/07/13 01:48:37;;;;;;;7.78;5.93;;;20.10;99.90;;;;;;5058226;28;20036;-81
2022/07/13 01:51:03;;;;;;;6.13;5.20;;;20.10;99.90;;;;;;5076698;28;20406;-79
2022/07/13 01:53:28;;;;;;;5.80;5.03;;;20.10;99.90;;;;;;5080638;28;20039;-79
2022/07/13 01:55:54;;;;;;;8.18;4.95;;;20.10;99.90;;;;;;5080409;28;20457;-81
2022/07/13 01:58:19;;;;;;;5.43;4.93;;;20.00;99.90;;;;;;5079955;28;20040;-81
2022/07/13 02:00:45;;;;;;;5.53;4.93;;;20.10;99.90;;;;;;5078098;28;20055;-80
2022/07/13 02:03:11;;;;;;;5.70;4.75;;;20.00;99.90;;;;;;5081285;28;20048;-80
2022/07/13 02:05:36;;;;;;;6.15;5.20;;;19.80;99.90;;;;;;5065435;28;20705;-80
2022/07/13 02:08:04;;;;;;;5.80;5.30;;;19.90;99.90;;;;;;5063848;28;20462;-80
2022/07/13 02:10:35;;;;;;;6.00;5.50;;;19.90;99.90;;;;;;5067171;28;20040;-79
2022/07/13 02:13:05;;;;;;;5.97;5.47;;;19.90;99.90;;;;;;5068586;28;20047;-80
2022/07/13 02:15:31;;;;;;;6.90;6.28;;;20.00;99.90;;;;;;5079399;28;20088;-79
2022/07/13 02:17:56;;;;;;;5.82;5.18;;;20.00;99.90;;;;;;5085333;28;20039;-83
2022/07/13 02:20:22;;;;;;;5.97;5.40;;;20.10;99.90;;;;;;5067835;28;20481;-81
2022/07/13 02:22:48;;;;;;;8.00;5.15;;;20.00;99.90;;;;;;5084760;28;20040;-80
2022/07/13 02:25:14;;;;;;;5.93;5.13;;;20.00;99.90;;;;;;5066888;28;20051;-80
2022/07/13 02:27:40;;;;;;;7.00;5.90;;;20.00;99.90;;;;;;5085717;28;20069;-79
2022/07/13 02:30:06;;;;;;;6.53;4.97;;;20.00;99.90;;;;;;5082093;28;20036;-79
2022/07/13 02:32:32;;;;;;;5.18;4.78;;;20.00;99.90;;;;;;5084141;28;20071;-80
2022/07/13 02:34:58;;;;;;;5.38;4.88;;;20.00;99.90;;;;;;5064564;28;20064;-82
2022/07/13 02:37:23;;;;;;;6.25;4.88;;;20.00;99.90;;;;;;5083685;28;20048;-81
2022/07/13 02:39:51;;;;;;;5.70;5.22;;;20.00;99.90;;;;;;5065193;28;20066;-81
2022/07/13 02:42:17;;;;;;;5.28;4.80;;;20.00;99.90;;;;;;5067098;28;20579;-79
2022/07/13 02:44:42;;;;;;;5.72;5.20;;;20.10;99.90;;;;;;5083141;28;20036;-79
2022/07/13 02:47:08;;;;;;;6.72;5.65;;;20.00;99.90;;;;;;5084051;28;20082;-82
2022/07/13 02:49:33;;;;;;;6.28;5.72;;;20.10;99.90;;;;;;5079790;28;20142;-82
2022/07/13 02:51:59;;;;;;;5.95;5.47;;;20.00;99.90;;;;;;5084452;28;20032;-80
2022/07/13 02:54:24;;;;;;;6.20;5.15;;;20.00;99.90;;;;;;5066014;28;20073;-80
2022/07/13 02:56:50;;;;;;;4.57;4.15;;;20.00;99.90;;;;;;5067609;28;20094;-84
2022/07/13 02:59:15;;;;;;;7.80;4.35;;;20.00;99.90;;;;;;5083590;28;20039;-80
2022/07/13 03:01:41;;;;;;;5.45;5.05;;;20.00;99.90;;;;;;5083461;28;20043;-79
2022/07/13 03:04:06;;;;;;;6.50;4.88;;;20.00;99.90;;;;;;5083650;28;20043;-81
2022/07/13 03:06:32;;;;;;;4.93;4.40;;;19.90;99.90;;;;;;5080778;28;20101;-80
2022/07/13 03:08:58;;;;;;;4.72;4.22;;;19.90;99.90;;;;;;5082653;28;20088;-81
2022/07/13 03:11:23;;;;;;;5.30;4.82;;;19.80;99.90;;;;;;5077400;28;20064;-82
2022/07/13 03:13:49;;;;;;;5.38;4.88;;;19.80;99.90;;;;;;5082035;28;20124;-80
2022/07/13 03:16:14;;;;;;;4.43;4.13;;;19.80;99.90;;;;;;5081042;28;20048;-81
2022/07/13 03:18:40;;;;;;;6.00;5.05;;;19.80;99.90;;;;;;5082131;28;20040;-80
2022/07/13 03:21:08;;;;;;;4.70;4.20;;;19.80;99.90;;;;;;5082313;28;20044;-79
2022/07/13 03:23:35;;;;;;;5.75;4.43;;;19.80;99.90;;;;;;5082967;28;21499;-83
2022/07/13 03:26:01;;;;;;;5.18;4.50;;;19.80;99.90;;;;;;5048869;28;20115;-80
2022/07/13 03:28:26;;;;;;;4.90;4.50;;;19.80;99.90;;;;;;5067477;28;20126;-79
2022/07/13 03:30:52;;;;;;;6.30;5.40;;;19.70;99.90;;;;;;5082079;28;20482;-80
2022/07/13 03:33:17;;;;;;;4.38;3.97;;;19.90;99.90;;;;;;5068403;28;20494;-79
2022/07/13 03:35:43;;;;;;;4.75;4.35;;;19.70;99.90;;;;;;5079493;28;20044;-83
2022/07/13 03:38:09;;;;;;;4.35;3.95;;;19.80;99.90;;;;;;5082732;28;20047;-80
2022/07/13 03:40:34;;;;;;;3.92;3.55;;;19.90;99.90;;;;;;5080880;28;20048;-79
2022/07/13 03:43:00;;;;;;;5.78;4.13;;;19.80;99.90;;;;;;5079580;28;20036;-79
2022/07/13 03:45:25;;;;;;;4.70;4.15;;;19.70;99.90;;;;;;5081844;28;20042;-79
2022/07/13 03:47:51;;;;;;;5.10;4.60;;;19.70;99.90;;;;;;5085072;28;20123;-82
2022/07/13 03:50:16;;;;;;;6.95;4.65;;;19.70;99.90;;;;;;5080194;28;20055;-79
2022/07/13 03:52:42;;;;;;;4.93;4.53;;;19.70;99.90;;;;;;5084137;28;20047;-80
2022/07/13 03:55:08;;;;;;;4.57;4.18;;;19.70;99.90;;;;;;5080214;28;20536;-80
2022/07/13 03:57:34;;;;;;;4.43;4.13;;;19.70;99.90;;;;;;5084183;28;20040;-80
2022/07/13 04:00:00;;;;;;;4.93;4.53;;;19.80;99.90;;;;;;5082042;28;20033;-79
2022/07/13 04:02:25;;;;;;;4.65;4.25;;;19.80;99.90;;;;;;5060696;28;20056;-80
2022/07/13 04:04:51;;;;;;;10.15;4.28;;;19.80;99.90;;;;;;5050515;28;20158;-83
2022/07/13 04:07:17;;;;;;;5.47;4.10;;;19.80;99.90;;;;;;5081271;28;20063;-79
2022/07/13 04:09:43;;;;;;;4.55;3.70;;;19.80;99.90;;;;;;5062955;28;20048;-79
2022/07/13 04:12:08;;;;;;;5.60;4.43;;;19.90;99.90;;;;;;5081807;28;20048;-84
2022/07/13 04:14:34;;;;;;;4.70;4.05;;;19.80;99.90;;;;;;5080898;28;20032;-83
2022/07/13 04:16:59;;;;;;;4.70;4.15;;;19.90;99.90;;;;;;5081018;28;20910;-80
2022/07/13 04:19:25;;;;;;;4.40;4.00;;;19.90;99.90;;;;;;5063675;28;20055;-81
2022/07/13 04:21:51;;;;;;;4.57;4.20;;;19.90;99.90;;;;;;5075465;28;20197;-84
2022/07/13 04:24:17;;;;;;;4.43;4.00;;;19.90;99.90;;;;;;5075708;28;20085;-81
2022/07/13 04:26:42;;;;;;;4.25;3.95;;;19.90;99.90;;;;;;5077326;28;20895;-84
2022/07/13 04:29:08;;;;;;;4.45;3.90;;;19.90;99.90;;;;;;5078484;28;20094;-83
2022/07/13 04:31:33;;;;;;;3.80;3.50;;;19.90;99.90;;;;;;5077345;28;20108;-81
2022/07/13 04:33:59;;;;;;;5.40;3.97;;;19.80;99.90;;;;;;5078994;28;20080;-80
2022/07/13 04:36:24;;;;;;;7.38;4.00;;;19.80;99.90;;;;;;5062453;28;20054;-80
2022/07/13 04:38:50;;;;;;;8.85;3.75;;;19.90;99.90;;;;;;5078549;28;20048;-80
2022/07/13 04:41:15;;;;;;;4.75;3.97;;;19.80;99.90;;;;;;5078968;28;20079;-81
2022/07/13 04:43:45;;;;;;;5.25;4.47;;;19.80;99.90;;;;;;5084166;28;20043;-80
2022/07/13 04:46:13;;;;;;;5.78;4.22;;;19.90;99.90;;;;;;5072640;28;20052;-80
2022/07/13 04:48:39;;;;;;;5.60;3.28;;;19.90;99.90;;;;;;5081472;28;20039;-85
2022/07/13 04:51:05;;;;;;;4.43;3.40;;;19.90;99.90;;;;;;5081416;28;20421;-80
2022/07/13 04:53:31;;;;;;;5.40;3.13;;;20.00;99.90;;;;;;5066115;28;20143;-79
2022/07/13 04:55:56;;;;;;;10.90;4.18;;;20.00;99.90;;;;;;5083041;28;20115;-85
2022/07/13 04:58:22;;;;;;;3.83;3.53;;;20.10;99.90;;;;;;5081739;28;20502;-84
2022/07/13 05:00:48;;;;;;;17.02;5.20;;;20.10;99.90;;;;;;5083004;28;20052;-81
2022/07/13 05:03:13;;;;;;;6.70;4.60;;;20.10;99.90;;;;;;5065928;28;20637;-80
2022/07/13 05:05:39;;;;;;;6.78;4.45;;;20.20;99.90;;;;;;5068179;28;20036;-80
2022/07/13 05:08:05;;;;;;;15.55;4.30;;;20.20;99.90;;;;;;5082297;28;20144;-85
2022/07/13 05:10:31;;;;;;;7.22;4.65;;;20.20;99.90;;;;;;5064907;28;20032;-82
2022/07/13 05:12:57;;;;;;;10.45;4.95;;;20.30;99.90;;;;;;5065573;28;20032;-81
2022/07/13 05:15:23;;;;;;;6.22;4.68;;;20.30;99.90;;;;;;5079881;28;20032;-82
2022/07/13 05:18:09;;;;;;;;;;;;;;;;;;;;;
2022/07/13 05:21:02;;;;;;;10.68;4.80;;;20.40;99.90;;;;;;5070903;28;20052;-82
2022/07/13 05:24:03;;;;;;;;;;;;;;;;;;;;;
2022/07/13 05:27:33;;;;;;;9.02;4.32;;;20.70;99.90;;;;;;5083250;28;20140;-84
2022/07/13 05:41:47;;;;;;;7.15;3.38;;;21.00;99.90;;;;;;5029224;22;20518;-81
2022/07/13 05:44:13;;;;;;;4.32;3.30;;;21.10;99.90;;;;;;5007197;28;20064;-81
2022/07/13 05:46:39;;;;;;;4.68;3.53;;;21.10;99.90;;;;;;5010725;28;20127;-80
2022/07/13 05:49:04;;;;;;;6.75;3.30;;;21.40;99.90;;;;;;5006825;28;20403;-82
2022/07/13 05:51:30;;;;;;;7.55;3.63;;;21.40;99.90;;;;;;5020579;28;20056;-81
2022/07/13 05:53:55;;;;;;;5.43;2.75;;;21.50;99.90;;;;;;5010139;28;20509;-83
2022/07/13 05:56:21;;;;;;;5.93;3.40;;;21.60;99.90;;;;;;5013743;28;20809;-84
2022/07/13 05:58:46;;;;;;;4.85;3.65;;;21.70;99.90;;;;;;5025476;28;20045;-83
2022/07/13 06:01:12;;;;;;;4.00;2.85;;;21.80;99.90;;;;;;5004602;28;20102;-81
2022/07/13 06:03:37;;;;;;;5.53;3.15;;;21.90;99.90;;;;;;5010115;28;20177;-81
2022/07/13 06:06:03;;;;;;;2.97;2.55;;;22.10;99.90;;;;;;5002107;28;20045;-82
2022/07/13 06:08:28;;;;;;;2.83;2.60;;;22.20;99.90;;;;;;5009060;28;20180;-81
2022/07/13 06:10:54;;;;;;;3.53;2.90;;;22.30;99.90;;;;;;5020579;28;20648;-81
2022/07/13 06:13:20;;;;;;;4.70;2.85;;;22.40;99.90;;;;;;4985381;28;20038;-81
2022/07/13 06:15:45;;;;;;;5.80;3.00;;;22.60;99.90;;;;;;5008247;28;20038;-81
2022/07/13 06:18:11;;;;;;;6.45;2.97;;;22.70;99.90;;;;;;5007374;28;20056;-80
2022/07/13 06:20:37;;;;;;;4.55;3.08;;;22.80;99.90;;;;;;5002874;28;20056;-80
2022/07/13 06:23:11;;;;;;;8.95;3.47;;;23.10;99.90;;;;;;5005729;28;20052;-81
2022/07/13 06:25:38;;;;;;;4.53;3.38;;;23.30;99.90;;;;;;4991274;28;20037;-81
2022/07/13 06:28:04;;;;;;;3.60;3.10;;;23.60;99.90;;;;;;5005858;28;20052;-82
2022/07/13 06:30:30;;;;;;;5.85;3.30;;;24.10;99.90;;;;;;5008709;28;20083;-81
2022/07/13 06:32:56;;;;;;;5.05;3.47;;;24.50;99.90;;;;;;5008302;28;20084;-83
2022/07/13 06:35:22;;;;;;;5.47;3.00;;;25.00;99.90;;;;;;5018938;28;20045;-85
2022/07/13 06:37:48;;;;;;;5.68;3.22;;;25.40;99.90;;;;;;4985729;28;20037;-85
2022/07/13 06:40:14;;;;;;;4.60;3.47;;;25.80;99.90;;;;;;5001773;28;20045;-83
2022/07/13 06:42:39;;;;;;;3.90;3.50;;;26.00;99.90;;;;;;5003370;28;20064;-81
2022/07/13 06:45:55;;;;;;;5.82;3.80;;;26.30;99.90;;;;;;5004623;28;20045;-84
2022/07/13 06:48:21;;;;;;;6.07;3.80;;;26.50;99.90;;;;;;5023757;28;20037;-81
2022/07/13 06:50:46;;;;;;;7.60;3.85;;;26.50;99.90;;;;;;5014779;28;20106;-81
2022/07/13 06:53:12;;;;;;;4.18;3.45;;;26.60;99.90;;;;;;4990977;28;20056;-83
2022/07/13 06:55:38;;;;;;;4.85;4.07;;;26.70;99.90;;;;;;5006338;28;20045;-81
2022/07/13 06:58:05;;;;;;;7.47;4.07;;;26.80;99.90;;;;;;5004365;28;20054;-81
2022/07/13 07:00:31;;;;;;;4.53;3.95;;;26.80;99.90;;;;;;5020862;28;20041;-84
2022/07/13 07:02:57;;;;;;;5.38;4.88;;;27.00;99.90;;;;;;5003757;28;20044;-83
2022/07/13 07:05:23;;;;;;;7.90;4.60;;;27.30;99.90;;;;;;4987717;28;20041;-82
2022/07/13 07:07:49;;;;;;;6.40;4.45;;;27.40;99.90;;;;;;5005387;28;20056;-81
2022/07/13 07:10:14;;;;;;;5.20;4.63;;;27.20;99.90;;;;;;5004419;28;20045;-82
2022/07/13 07:12:40;;;;;;;14.38;4.03;;;27.00;99.90;;;;;;5004480;28;20127;-82
2022/07/13 07:15:06;;;;;;;6.53;5.15;;;26.70;99.90;;;;;;5023352;28;20045;-83
2022/07/13 07:17:32;;;;;;;6.57;4.45;;;26.40;99.90;;;;;;5007095;28;20096;-82
2022/07/13 07:20:04;;;;;;;4.53;4.13;;;26.10;99.90;;;;;;5024748;28;20127;-84
2022/07/13 07:22:29;;;;;;;6.28;5.07;;;25.80;99.90;;;;;;5024177;28;20665;-83
2022/07/13 07:24:56;;;;;;;7.35;5.05;;;25.60;99.90;;;;;;5019047;28;20041;-83
2022/07/13 07:27:22;;;;;;;4.68;3.45;;;25.50;99.90;;;;;;5005371;28;20068;-83
2022/07/13 07:29:48;;;;;;;4.88;3.63;;;25.30;99.90;;;;;;5004235;28;20080;-84
2022/07/13 07:32:40;;;;;;;4.68;4.05;;;25.10;99.90;;;;;;5002928;28;20096;-82
2022/07/13 07:35:27;;;;;;;4.80;4.22;;;25.20;99.90;;;;;;5001987;28;20088;-83
2022/07/13 07:37:52;;;;;;;7.10;4.30;;;25.20;99.90;;;;;;5008569;28;20068;-82
2022/07/13 07:40:18;;;;;;;6.03;4.25;;;25.30;99.90;;;;;;5007560;28;20052;-82
2022/07/13 07:42:43;;;;;;;5.47;4.35;;;25.40;99.90;;;;;;4990439;28;20045;-82
2022/07/13 07:45:09;;;;;;;5.13;4.28;;;25.50;99.90;;;;;;5008212;28;20045;-84
2022/07/13 07:47:36;;;;;;;5.78;4.38;;;25.70;99.90;;;;;;5007579;28;20045;-82
2022/07/13 07:50:01;;;;;;;6.10;5.05;;;25.80;99.90;;;;;;4992515;28;20033;-81
2022/07/13 07:52:28;;;;;;;8.05;4.65;;;26.00;99.90;;;;;;5006472;28;20087;-84
2022/07/13 07:54:54;;;;;;;5.20;4.35;;;26.40;99.90;;;;;;5022159;28;20590;-82
2022/07/13 07:57:19;;;;;;;7.00;4.28;;;26.80;99.90;;;;;;5004685;28;20137;-82
2022/07/13 07:59:47;;;;;;;6.22;4.60;;;27.20;99.90;;;;;;4997384;28;20048;-83
2022/07/13 08:02:14;;;;;;;5.25;4.75;;;27.50;99.90;;;;;;4997280;28;20068;-83
2022/07/13 08:04:40;;;;;;;6.80;4.63;;;27.70;99.90;;;;;;4994946;28;20053;-82
2022/07/13 08:07:07;;;;;;;5.43;4.80;;;28.00;99.90;;;;;;5001664;28;20488;-83
2022/07/13 08:09:34;;;;;;;6.20;5.53;;;28.40;99.90;;;;;;4985134;28;20440;-83
2022/07/13 08:12:00;;;;;;;8.80;4.82;;;28.50;99.90;;;;;;4995917;28;20041;-83
2022/07/13 08:14:26;;;;;;;9.60;4.70;;;28.80;99.90;;;;;;4999730;28;20045;-83
2022/07/13 08:16:52;;;;;;;8.32;4.55;;;29.00;99.90;;;;;;5016377;28;20698;-81
2022/07/13 08:19:18;;;;;;;4.80;4.30;;;29.10;99.90;;;;;;4980142;28;20052;-82
2022/07/13 08:21:43;;;;;;;9.65;4.78;;;29.30;99.90;;;;;;4999874;28;20046;-83
2022/07/13 08:24:09;;;;;;;7.10;4.90;;;29.20;99.90;;;;;;5014767;28;20041;-83
2022/07/13 08:26:35;;;;;;;7.00;4.78;;;29.50;99.90;;;;;;5000010;28;20037;-83
2022/07/13 08:29:02;;;;;;;6.20;4.50;;;29.60;99.90;;;;;;4981509;28;20046;-82
2022/07/13 08:31:30;;;;;;;5.97;4.90;;;29.60;99.90;;;;;;5016842;28;20158;-85
2022/07/13 08:39:56;;;;;;;5.50;5.00;;;30.10;99.90;;;;;;5012264;28;20064;-81
2022/07/13 08:42:22;;;;;;;8.00;3.90;;;30.10;99.90;;;;;;5002418;28;20053;-82
2022/07/13 08:44:48;;;;;;;7.38;4.57;;;30.10;99.90;;;;;;4983974;28;20396;-82
2022/07/13 08:47:14;;;;;;;13.43;4.85;;;30.20;99.90;;;;;;4984316;28;20053;-82
2022/07/13 08:49:41;;;;;;;7.28;5.78;;;30.30;99.90;;;;;;5009978;28;20635;-83
2022/07/13 08:52:07;;;;;;;5.45;4.32;;;30.40;99.90;;;;;;5000707;28;20060;-82
2022/07/13 08:54:33;;;;;;;4.53;4.10;;;30.40;99.90;;;;;;5017399;28;20048;-81
2022/07/13 08:56:58;;;;;;;7.20;5.45;;;30.50;99.90;;;;;;4996251;28;20045;-82
2022/07/13 08:59:24;;;;;;;3.95;3.63;;;30.50;99.90;;;;;;4998204;28;20041;-83
2022/07/13 09:01:49;;;;;;;5.72;3.45;;;30.60;99.90;;;;;;5017042;28;20133;-81
2022/07/13 09:04:15;;;;;;;4.72;3.40;;;30.70;99.90;;;;;;4995503;28;20136;-83
2022/07/13 09:06:47;;;;;;;4.07;3.00;;;30.80;99.90;;;;;;4994913;28;20049;-82
2022/07/13 09:09:31;;;;;;;5.60;3.10;;;30.80;99.90;;;;;;4995903;28;20075;-82
2022/07/13 09:12:17;;;;;;;4.32;3.13;;;31.00;99.90;;;;;;5013984;28;20033;-82
2022/07/13 09:14:56;;;;;;;4.45;2.80;;;31.10;99.90;;;;;;4995384;28;20068;-82
2022/07/13 09:17:32;;;;;;;3.83;2.92;;;31.20;99.90;;;;;;4995447;28;20088;-84
2022/07/13 09:20:17;;;;;;;6.35;3.15;;;31.20;99.90;;;;;;4978716;28;20837;-81
2022/07/13 09:22:51;;;;;;;5.63;2.70;;;31.00;99.90;;;;;;4997432;28;20032;-82
2022/07/13 09:25:32;;;;;;;3.10;2.88;;;31.00;99.90;;;;;;5012986;28;20424;-83
2022/07/13 09:28:03;;;;;;;3.97;2.78;;;31.00;99.90;;;;;;4981438;28;20041;-82
2022/07/13 09:30:39;;;;;;;5.00;2.35;;;30.90;99.90;;;;;;4982645;28;20128;-83
2022/07/13 09:33:05;;;;;;;5.30;2.92;;;31.00;99.90;;;;;;4998480;28;20041;-81
2022/07/13 09:35:44;;;;;;;2.83;2.33;;;30.80;99.90;;;;;;5014590;28;20041;-78
2022/07/13 09:38:31;;;;;;;4.10;2.28;;;31.20;99.90;;;;;;4994815;28;20111;-76
2022/07/13 09:41:18;;;;;;;2.70;2.15;;;31.10;99.90;;;;;;4997691;28;20115;-77
2022/07/13 09:47:06;;;;;;;4.60;2.70;;;31.20;99.90;;;;;;4997551;28;20064;-80
2022/07/13 09:49:39;;;;;;;3.78;1.70;;;31.20;99.90;;;;;;4994097;28;20043;-77
2022/07/13 09:52:06;;;;;;;4.45;2.10;;;31.20;99.90;;;;;;4995041;28;20076;-78
2022/07/13 09:54:34;;;;;;;4.18;2.28;;;31.20;99.90;;;;;;4996938;28;20048;-77
2022/07/13 09:57:02;;;;;;;4.80;2.03;;;31.40;99.90;;;;;;4994829;28;20116;-80
2022/07/13 09:59:28;;;;;;;4.43;1.88;;;31.40;99.90;;;;;;4993686;28;20059;-79
2022/07/13 10:01:55;;;;;;;2.20;1.13;;;31.40;99.90;;;;;;4997928;28;20084;-79
2022/07/13 10:04:24;;;;;;;3.97;1.73;;;31.40;99.90;;;;;;5001807;28;20046;-77
2022/07/13 10:06:50;;;;;;;1.73;1.45;;;31.40;99.60;;;;;;5015040;28;20037;-80
2022/07/13 10:09:34;;;;;;;3.45;1.52;;;31.40;99.50;;;;;;5012753;28;20061;-79
2022/07/13 10:12:03;;;;;;;4.55;1.50;;;31.40;99.60;;;;;;4997234;28;20233;-77
2022/07/13 10:14:30;;;;;;;3.40;1.58;;;31.40;99.60;;;;;;5014529;28;20034;-79
2022/07/13 10:17:09;;;;;;;4.68;1.10;;;31.50;99.00;;;;;;4994768;28;20037;-77
2022/07/13 10:19:58;;;;;;;2.17;1.48;;;31.50;98.90;;;;;;4994916;28;20045;-80
2022/07/13 10:22:27;;;;;;;3.05;1.30;;;31.40;99.00;;;;;;4996143;28;20045;-79
2022/07/13 10:25:56;;;;;;;;;;;;;;;;;;;;;
2022/07/13 10:28:41;;;;;;;3.42;1.13;;;31.30;98.40;;;;;;5010343;28;20097;-80
2022/07/13 10:31:45;;;;;;;2.55;1.40;;;31.40;98.00;;;;;;4998687;28;20589;-81
2022/07/13 10:35:10;;;;;;;3.70;0.88;;;31.40;97.70;;;;;;4996131;28;20547;-84
2022/07/13 10:37:58;;;;;;;3.15;1.10;;;31.50;96.40;;;;;;4984429;28;20041;-84
2022/07/13 10:40:34;;;;;;;2.25;0.88;;;31.60;97.40;;;;;;5000905;28;20041;-79
2022/07/13 10:43:01;;;;;;;4.53;1.23;;;31.50;97.10;;;;;;5016499;28;20041;-82
2022/07/13 10:47:59;;;;;;;2.70;0.93;;;31.80;97.00;;;;;;5004006;28;20076;-82
2022/07/13 10:50:36;;;;;;;1.48;1.13;;;31.90;96.60;;;;;;5014450;28;20045;-80
2022/07/13 10:53:02;;;;;;;3.65;1.00;;;31.90;97.20;;;;;;4999461;28;20456;-81
2022/07/13 10:55:33;;;;;;;3.10;1.00;;;31.90;96.10;;;;;;5004119;28;20094;-81
2022/07/13 10:58:02;;;;;;;2.38;1.05;;;31.80;96.00;;;;;;5000639;28;20041;-81
2022/07/13 11:00:43;;;;;;;4.10;1.33;;;31.70;96.50;;;;;;5015959;28;20707;-81
2022/07/13 11:03:32;;;;;;;1.98;1.10;;;31.60;96.70;;;;;;5000096;28;20044;-81
2022/07/13 11:06:15;;;;;;;3.05;1.25;;;31.70;95.70;;;;;;4998834;28;20132;-79
2022/07/13 11:08:41;;;;;;;1.63;1.20;;;31.70;96.70;;;;;;4998385;28;20053;-81
2022/07/13 11:11:15;;;;;;;5.63;1.65;;;31.60;96.60;;;;;;5000247;28;20134;-82
2022/07/13 11:13:44;;;;;;;3.97;1.10;;;31.50;96.30;;;;;;4997654;28;20446;-79
2022/07/13 11:16:11;;;;;;;1.63;1.25;;;31.50;97.00;;;;;;5000829;28;20099;-82
2022/07/13 11:18:49;;;;;;;5.78;1.50;;;31.40;97.00;;;;;;5000021;28;20045;-81
2022/07/13 11:21:26;;;;;;;4.40;1.23;;;31.40;96.50;;;;;;4997632;28;20049;-82
2022/07/13 11:28:07;;;;;;;2.28;1.42;;;31.40;96.40;;;;;;5000614;28;20132;-81
2022/07/13 11:31:51;;;;;;;4.72;1.73;;;31.40;97.10;;;;;;4993015;28;20050;-82
2022/07/13 11:37:58;;;;;;;2.10;0.98;;;31.70;96.40;;;;;;5017917;28;20455;-79
2022/07/13 11:40:29;;;;;;;6.00;0.90;;;31.50;96.10;;;;;;5004516;28;20531;-83
2022/07/13 11:42:59;;;;;;;4.88;1.10;;;31.50;94.80;;;;;;5011685;28;20045;-78
2022/07/13 11:45:32;;;;;;;2.45;1.38;;;31.30;95.20;;;;;;4984883;28;20043;-79
2022/07/13 11:48:02;;;;;;;4.00;0.85;;;31.20;95.90;;;;;;4996350;28;20069;-79
2022/07/13 11:50:45;;;;;;;4.45;0.98;;;30.80;95.80;;;;;;4980223;28;20041;-79
2022/07/13 11:53:23;;;;;;;2.28;1.08;;;30.70;96.20;;;;;;4982730;28;20045;-81
2022/07/13 11:55:50;;;;;;;3.00;1.10;;;30.50;96.80;;;;;;5000945;28;20056;-80
2022/07/13 11:58:28;;;;;;;3.42;0.88;;;30.30;96.70;;;;;;4985469;28;20041;-82
2022/07/13 12:00:55;;;;;;;2.13;1.17;;;30.20;97.00;;;;;;5002321;28;20042;-81
2022/07/13 12:03:29;;;;;;;3.08;1.20;;;30.20;97.40;;;;;;5003631;28;20049;-81
2022/07/13 12:06:09;;;;;;;6.25;1.40;;;30.30;97.70;;;;;;4997368;28;20094;-78
2022/07/13 12:08:42;;;;;;;6.75;1.27;;;30.40;97.40;;;;;;5000573;28;20052;-82
2022/07/13 12:11:17;;;;;;;4.43;1.70;;;30.30;97.10;;;;;;5000717;28;20077;-82
2022/07/13 12:13:45;;;;;;;4.70;1.55;;;30.20;97.00;;;;;;5001827;28;20045;-81
2022/07/13 12:16:12;;;;;;;3.58;1.40;;;30.20;97.40;;;;;;5001370;28;20041;-82
2022/07/13 12:19:11;;;;;;;5.20;1.30;;;30.20;97.70;;;;;;5003940;28;20496;-83
2022/07/13 12:21:57;;;;;;;3.45;1.10;;;30.20;98.20;;;;;;5002024;28;20048;-80
2022/07/13 12:24:32;;;;;;;3.85;1.42;;;30.20;96.90;;;;;;4998231;28;20038;-83
2022/07/13 12:27:06;;;;;;;2.20;1.00;;;30.00;97.30;;;;;;5001569;28;20060;-79
2022/07/13 12:29:33;;;;;;;4.33;1.53;;;29.90;97.50;;;;;;5002324;28;20052;-80
2022/07/13 12:32:00;;;;;;;3.72;1.10;;;29.90;97.10;;;;;;5020950;28;20288;-80
2022/07/13 12:34:29;;;;;;;2.75;1.30;;;29.90;97.40;;;;;;5005554;28;20034;-80
2022/07/13 12:37:14;;;;;;;2.70;1.25;;;29.90;97.60;;;;;;4988154;28;20036;-81
2022/07/13 12:39:43;;;;;;;3.65;1.33;;;29.90;97.90;;;;;;4974643;28;20052;-82
2022/07/13 12:42:09;;;;;;;1.25;0.88;;;30.10;97.40;;;;;;4985973;28;20136;-81
2022/07/13 12:44:35;;;;;;;2.58;1.10;;;30.20;97.10;;;;;;5002514;28;20184;-81
2022/07/13 12:47:04;;;;;;;1.58;0.85;;;30.00;97.10;;;;;;5022421;28;20049;-81
2022/07/13 12:49:37;;;;;;;2.22;1.02;;;30.00;97.20;;;;;;4986963;28;20173;-81
2022/07/13 12:52:13;;;;;;;2.47;1.00;;;29.90;98.80;;;;;;4989324;28;20563;-82
2022/07/13 12:54:46;;;;;;;3.58;1.25;;;29.90;98.60;;;;;;5000051;28;20038;-81
2022/07/13 12:57:22;;;;;;;4.40;1.45;;;30.00;98.70;;;;;;5022522;28;20045;-80
2022/07/13 13:00:21;;;;;;;5.22;1.27;;;30.00;99.10;;;;;;5019674;28;20049;-83
2022/07/13 13:02:48;;;;;;;2.45;1.58;;;30.00;99.60;;;;;;5003070;28;20053;-81
2022/07/13 13:05:14;;;;;;;2.25;1.17;;;30.00;99.50;;;;;;5003420;28;20156;-79
2022/07/13 13:07:40;;;;;;;3.58;1.45;;;30.00;99.20;;;;;;5000825;28;20033;-82
2022/07/13 13:10:07;;;;;;;4.00;1.52;;;29.90;99.20;;;;;;5003073;28;20068;-81
2022/07/13 13:12:34;;;;;;;4.70;1.60;;;29.70;99.40;;;;;;5002828;28;20045;-81
2022/07/13 13:15:00;;;;;;;4.97;2.08;;;29.40;99.50;;;;;;5004779;28;20743;-80
2022/07/13 13:17:26;;;;;;;3.10;1.45;;;29.10;99.60;;;;;;5004016;28;20392;-81
2022/07/13 13:19:53;;;;;;;4.65;1.63;;;29.00;99.90;;;;;;5002490;28;20068;-82
2022/07/13 13:22:19;;;;;;;4.57;1.23;;;28.90;99.90;;;;;;5004250;28;20128;-81
2022/07/13 13:24:46;;;;;;;5.22;1.65;;;28.90;99.90;;;;;;5002491;28;20084;-80
2022/07/13 13:27:12;;;;;;;3.65;2.00;;;29.00;99.90;;;;;;5003691;28;20056;-81
2022/07/13 13:34:02;;;;;;;2.72;1.50;;;29.30;99.70;;;;;;5024679;28;20069;-84
2022/07/13 13:37:46;;;;;;;3.08;1.20;;;29.10;99.00;;;;;;5017869;28;21016;-83
2022/07/13 13:41:06;;;;;;;5.55;1.40;;;29.00;99.80;;;;;;4966162;28;20065;-82